sensor_id;sensor_type;location;lat;lon;timestamp;P1;durP1;ratioP1;P2;durP2;ratioP2
42294;SDS011;27947;47.556;18.718;2023-11-21T00:01:09;6.03;;;2.30;;
42294;SDS011;27947;47.556;18.718;2023-11-21T00:03:35;5.60;;;2.00;;
42294;SDS011;27947;47.556;18.718;2023-11-21T00:06:00;9.38;;;2.38;;
42294;SDS011;27947;47.556;18.718;2023-11-21T00:08:26;5.75;;;1.98;;
42294;SDS011;27947;47.556;18.718;2023-11-21T00:10:52;5.95;;;1.88;;
42294;SDS011;27947;47.556;18.718;2023-11-21T00:13:17;4.32;;;1.80;;
42294;SDS011;27947;47.556;18.718;2023-11-21T00:15:43;7.70;;;2.65;;
42294;SDS011;27947;47.556;18.718;2023-11-21T00:18:08;3.53;;;1.80;;
42294;SDS011;27947;47.556;18.718;2023-11-21T00:20:34;6.10;;;1.90;;
42294;SDS011;27947;47.556;18.718;2023-11-21T00:22:59;5.28;;;2.30;;
42294;SDS011;27947;47.556;18.718;2023-11-21T00:25:24;6.07;;;2.05;;
42294;SDS011;27947;47.556;18.718;2023-11-21T00:27:50;5.80;;;2.50;;
42294;SDS011;27947;47.556;18.718;2023-11-21T00:30:15;5.97;;;2.25;;
42294;SDS011;27947;47.556;18.718;2023-11-21T00:32:41;7.57;;;2.80;;
42294;SDS011;27947;47.556;18.718;2023-11-21T00:35:06;10.75;;;2.75;;
42294;SDS011;27947;47.556;18.718;2023-11-21T00:37:32;8.60;;;2.95;;
42294;SDS011;27947;47.556;18.718;2023-11-21T00:39:57;5.35;;;2.55;;
42294;SDS011;27947;47.556;18.718;2023-11-21T00:42:23;8.93;;;3.03;;
42294;SDS011;27947;47.556;18.718;2023-11-21T00:44:49;8.57;;;2.60;;
42294;SDS011;27947;47.556;18.718;2023-11-21T00:47:14;6.18;;;2.65;;
42294;SDS011;27947;47.556;18.718;2023-11-21T00:49:40;6.72;;;2.83;;
42294;SDS011;27947;47.556;18.718;2023-11-21T00:52:06;7.30;;;2.97;;
42294;SDS011;27947;47.556;18.718;2023-11-21T00:54:31;6.18;;;2.70;;
42294;SDS011;27947;47.556;18.718;2023-11-21T00:56:58;6.65;;;2.30;;
42294;SDS011;27947;47.556;18.718;2023-11-21T00:59:23;5.95;;;1.98;;
42294;SDS011;27947;47.556;18.718;2023-11-21T01:01:49;5.40;;;2.50;;
42294;SDS011;27947;47.556;18.718;2023-11-21T01:04:15;5.60;;;2.33;;
42294;SDS011;27947;47.556;18.718;2023-11-21T01:06:40;7.90;;;2.78;;
42294;SDS011;27947;47.556;18.718;2023-11-21T01:09:07;7.35;;;2.60;;
42294;SDS011;27947;47.556;18.718;2023-11-21T01:11:36;12.07;;;2.55;;
42294;SDS011;27947;47.556;18.718;2023-11-21T01:14:03;7.93;;;2.78;;
42294;SDS011;27947;47.556;18.718;2023-11-21T01:16:30;6.47;;;3.05;;
42294;SDS011;27947;47.556;18.718;2023-11-21T01:18:57;8.68;;;2.92;;
42294;SDS011;27947;47.556;18.718;2023-11-21T01:21:24;7.13;;;3.00;;
42294;SDS011;27947;47.556;18.718;2023-11-21T01:23:49;7.13;;;2.70;;
42294;SDS011;27947;47.556;18.718;2023-11-21T01:26:15;7.82;;;2.53;;
42294;SDS011;27947;47.556;18.718;2023-11-21T01:28:40;7.88;;;2.35;;
42294;SDS011;27947;47.556;18.718;2023-11-21T01:31:06;6.28;;;2.38;;
42294;SDS011;27947;47.556;18.718;2023-11-21T01:33:32;6.07;;;2.53;;
42294;SDS011;27947;47.556;18.718;2023-11-21T01:35:58;7.15;;;2.47;;
42294;SDS011;27947;47.556;18.718;2023-11-21T01:38:25;6.05;;;2.10;;
42294;SDS011;27947;47.556;18.718;2023-11-21T01:40:50;5.95;;;2.70;;
42294;SDS011;27947;47.556;18.718;2023-11-21T01:43:16;7.13;;;2.20;;
42294;SDS011;27947;47.556;18.718;2023-11-21T01:45:42;7.13;;;2.13;;
42294;SDS011;27947;47.556;18.718;2023-11-21T01:48:07;5.55;;;2.03;;
42294;SDS011;27947;47.556;18.718;2023-11-21T01:50:33;8.13;;;3.30;;
42294;SDS011;27947;47.556;18.718;2023-11-21T01:52:58;5.15;;;1.75;;
42294;SDS011;27947;47.556;18.718;2023-11-21T01:55:25;6.85;;;2.35;;
42294;SDS011;27947;47.556;18.718;2023-11-21T01:57:52;4.88;;;1.95;;
42294;SDS011;27947;47.556;18.718;2023-11-21T02:00:18;5.55;;;2.17;;
42294;SDS011;27947;47.556;18.718;2023-11-21T02:02:44;5.00;;;2.00;;
42294;SDS011;27947;47.556;18.718;2023-11-21T02:05:10;6.00;;;1.88;;
42294;SDS011;27947;47.556;18.718;2023-11-21T02:07:38;4.35;;;1.77;;
42294;SDS011;27947;47.556;18.718;2023-11-21T02:10:04;6.57;;;2.33;;
42294;SDS011;27947;47.556;18.718;2023-11-21T02:12:29;7.43;;;2.38;;
42294;SDS011;27947;47.556;18.718;2023-11-21T02:14:55;3.03;;;1.75;;
42294;SDS011;27947;47.556;18.718;2023-11-21T02:17:21;7.95;;;2.00;;
42294;SDS011;27947;47.556;18.718;2023-11-21T02:19:46;4.68;;;1.92;;
42294;SDS011;27947;47.556;18.718;2023-11-21T02:22:12;6.57;;;1.80;;
42294;SDS011;27947;47.556;18.718;2023-11-21T02:24:41;6.65;;;1.90;;
42294;SDS011;27947;47.556;18.718;2023-11-21T02:27:07;6.75;;;1.92;;
42294;SDS011;27947;47.556;18.718;2023-11-21T02:29:32;5.45;;;1.67;;
42294;SDS011;27947;47.556;18.718;2023-11-21T02:31:58;4.10;;;1.90;;
42294;SDS011;27947;47.556;18.718;2023-11-21T02:34:24;5.72;;;2.20;;
42294;SDS011;27947;47.556;18.718;2023-11-21T02:36:50;13.77;;;2.00;;
42294;SDS011;27947;47.556;18.718;2023-11-21T02:39:16;4.82;;;2.30;;
42294;SDS011;27947;47.556;18.718;2023-11-21T02:41:42;4.60;;;1.90;;
42294;SDS011;27947;47.556;18.718;2023-11-21T02:44:07;4.63;;;1.75;;
42294;SDS011;27947;47.556;18.718;2023-11-21T02:46:36;5.55;;;1.92;;
42294;SDS011;27947;47.556;18.718;2023-11-21T02:49:05;7.22;;;2.10;;
42294;SDS011;27947;47.556;18.718;2023-11-21T02:51:35;6.65;;;2.20;;
42294;SDS011;27947;47.556;18.718;2023-11-21T02:54:00;4.90;;;2.00;;
42294;SDS011;27947;47.556;18.718;2023-11-21T02:56:28;7.97;;;2.65;;
42294;SDS011;27947;47.556;18.718;2023-11-21T02:58:56;5.18;;;2.30;;
42294;SDS011;27947;47.556;18.718;2023-11-21T03:01:23;9.02;;;2.55;;
42294;SDS011;27947;47.556;18.718;2023-11-21T03:03:51;8.73;;;3.20;;
42294;SDS011;27947;47.556;18.718;2023-11-21T03:06:17;9.15;;;2.47;;
42294;SDS011;27947;47.556;18.718;2023-11-21T03:08:43;7.65;;;2.33;;
42294;SDS011;27947;47.556;18.718;2023-11-21T03:11:08;7.65;;;2.90;;
42294;SDS011;27947;47.556;18.718;2023-11-21T03:13:33;6.90;;;2.25;;
42294;SDS011;27947;47.556;18.718;2023-11-21T03:15:59;8.20;;;2.15;;
42294;SDS011;27947;47.556;18.718;2023-11-21T03:18:24;8.40;;;2.28;;
42294;SDS011;27947;47.556;18.718;2023-11-21T03:20:51;5.97;;;2.20;;
42294;SDS011;27947;47.556;18.718;2023-11-21T03:23:17;4.25;;;1.85;;
42294;SDS011;27947;47.556;18.718;2023-11-21T03:25:42;7.25;;;2.15;;
42294;SDS011;27947;47.556;18.718;2023-11-21T03:28:08;4.60;;;2.05;;
42294;SDS011;27947;47.556;18.718;2023-11-21T03:30:35;7.88;;;2.15;;
42294;SDS011;27947;47.556;18.718;2023-11-21T03:33:00;5.10;;;2.03;;
42294;SDS011;27947;47.556;18.718;2023-11-21T03:35:26;4.75;;;2.10;;
42294;SDS011;27947;47.556;18.718;2023-11-21T03:37:51;5.07;;;1.90;;
42294;SDS011;27947;47.556;18.718;2023-11-21T03:40:16;7.30;;;2.38;;
42294;SDS011;27947;47.556;18.718;2023-11-21T03:42:42;7.15;;;1.80;;
42294;SDS011;27947;47.556;18.718;2023-11-21T03:45:07;3.97;;;2.20;;
42294;SDS011;27947;47.556;18.718;2023-11-21T03:47:34;6.75;;;2.85;;
42294;SDS011;27947;47.556;18.718;2023-11-21T03:50:00;6.13;;;2.78;;
42294;SDS011;27947;47.556;18.718;2023-11-21T03:52:25;6.50;;;3.63;;
42294;SDS011;27947;47.556;18.718;2023-11-21T03:54:52;7.40;;;4.25;;
42294;SDS011;27947;47.556;18.718;2023-11-21T03:57:17;10.43;;;4.35;;
42294;SDS011;27947;47.556;18.718;2023-11-21T03:59:43;10.38;;;4.38;;
42294;SDS011;27947;47.556;18.718;2023-11-21T04:02:08;10.27;;;3.92;;
42294;SDS011;27947;47.556;18.718;2023-11-21T04:04:34;8.55;;;3.22;;
42294;SDS011;27947;47.556;18.718;2023-11-21T04:06:59;6.97;;;3.17;;
42294;SDS011;27947;47.556;18.718;2023-11-21T04:09:25;6.88;;;3.10;;
42294;SDS011;27947;47.556;18.718;2023-11-21T04:11:51;5.68;;;2.92;;
42294;SDS011;27947;47.556;18.718;2023-11-21T04:14:16;7.65;;;2.58;;
42294;SDS011;27947;47.556;18.718;2023-11-21T04:16:42;6.30;;;3.05;;
42294;SDS011;27947;47.556;18.718;2023-11-21T04:19:07;6.78;;;2.75;;
42294;SDS011;27947;47.556;18.718;2023-11-21T04:21:35;6.22;;;2.80;;
42294;SDS011;27947;47.556;18.718;2023-11-21T04:24:00;7.57;;;3.25;;
42294;SDS011;27947;47.556;18.718;2023-11-21T04:26:25;7.45;;;2.45;;
42294;SDS011;27947;47.556;18.718;2023-11-21T04:28:51;13.27;;;2.80;;
42294;SDS011;27947;47.556;18.718;2023-11-21T04:31:16;7.68;;;2.90;;
42294;SDS011;27947;47.556;18.718;2023-11-21T04:33:41;7.63;;;2.88;;
42294;SDS011;27947;47.556;18.718;2023-11-21T04:36:07;6.13;;;2.70;;
42294;SDS011;27947;47.556;18.718;2023-11-21T04:38:32;13.52;;;2.53;;
42294;SDS011;27947;47.556;18.718;2023-11-21T04:40:58;5.80;;;2.70;;
42294;SDS011;27947;47.556;18.718;2023-11-21T04:43:23;4.93;;;2.55;;
42294;SDS011;27947;47.556;18.718;2023-11-21T04:45:48;6.50;;;2.80;;
42294;SDS011;27947;47.556;18.718;2023-11-21T04:48:14;8.80;;;2.90;;
42294;SDS011;27947;47.556;18.718;2023-11-21T04:50:39;6.07;;;2.25;;
42294;SDS011;27947;47.556;18.718;2023-11-21T04:53:05;6.90;;;2.38;;
42294;SDS011;27947;47.556;18.718;2023-11-21T04:55:30;9.90;;;2.42;;
42294;SDS011;27947;47.556;18.718;2023-11-21T04:57:56;5.32;;;2.00;;
42294;SDS011;27947;47.556;18.718;2023-11-21T05:00:21;4.07;;;2.05;;
42294;SDS011;27947;47.556;18.718;2023-11-21T05:02:47;7.78;;;2.05;;
42294;SDS011;27947;47.556;18.718;2023-11-21T05:05:12;4.80;;;1.80;;
42294;SDS011;27947;47.556;18.718;2023-11-21T05:07:39;4.65;;;1.88;;
42294;SDS011;27947;47.556;18.718;2023-11-21T05:10:05;6.28;;;1.48;;
42294;SDS011;27947;47.556;18.718;2023-11-21T05:12:36;6.40;;;2.20;;
42294;SDS011;27947;47.556;18.718;2023-11-21T05:15:03;4.72;;;2.10;;
42294;SDS011;27947;47.556;18.718;2023-11-21T05:17:29;5.20;;;1.80;;
42294;SDS011;27947;47.556;18.718;2023-11-21T05:19:54;8.57;;;2.20;;
42294;SDS011;27947;47.556;18.718;2023-11-21T05:22:19;6.75;;;2.13;;
42294;SDS011;27947;47.556;18.718;2023-11-21T05:24:45;6.13;;;2.20;;
42294;SDS011;27947;47.556;18.718;2023-11-21T05:27:10;6.10;;;2.03;;
42294;SDS011;27947;47.556;18.718;2023-11-21T05:29:36;4.63;;;2.15;;
42294;SDS011;27947;47.556;18.718;2023-11-21T05:32:02;7.43;;;3.33;;
42294;SDS011;27947;47.556;18.718;2023-11-21T05:34:28;11.68;;;4.57;;
42294;SDS011;27947;47.556;18.718;2023-11-21T05:36:53;12.52;;;4.30;;
42294;SDS011;27947;47.556;18.718;2023-11-21T05:39:18;9.40;;;4.70;;
42294;SDS011;27947;47.556;18.718;2023-11-21T05:41:44;11.57;;;4.50;;
42294;SDS011;27947;47.556;18.718;2023-11-21T05:44:10;9.18;;;3.22;;
42294;SDS011;27947;47.556;18.718;2023-11-21T05:46:36;11.52;;;3.03;;
42294;SDS011;27947;47.556;18.718;2023-11-21T05:49:01;13.43;;;3.03;;
42294;SDS011;27947;47.556;18.718;2023-11-21T05:51:27;5.13;;;2.45;;
42294;SDS011;27947;47.556;18.718;2023-11-21T05:53:53;3.75;;;2.20;;
42294;SDS011;27947;47.556;18.718;2023-11-21T05:56:18;11.07;;;2.58;;
42294;SDS011;27947;47.556;18.718;2023-11-21T05:58:43;10.93;;;2.85;;
42294;SDS011;27947;47.556;18.718;2023-11-21T06:01:09;5.00;;;2.65;;
42294;SDS011;27947;47.556;18.718;2023-11-21T06:03:38;5.68;;;2.22;;
42294;SDS011;27947;47.556;18.718;2023-11-21T06:06:03;6.50;;;2.50;;
42294;SDS011;27947;47.556;18.718;2023-11-21T06:08:29;14.25;;;3.65;;
42294;SDS011;27947;47.556;18.718;2023-11-21T06:10:54;8.32;;;3.47;;
42294;SDS011;27947;47.556;18.718;2023-11-21T06:13:20;10.20;;;4.82;;
42294;SDS011;27947;47.556;18.718;2023-11-21T06:15:49;7.07;;;2.63;;
42294;SDS011;27947;47.556;18.718;2023-11-21T06:18:15;10.48;;;3.08;;
42294;SDS011;27947;47.556;18.718;2023-11-21T06:20:41;7.60;;;3.08;;
42294;SDS011;27947;47.556;18.718;2023-11-21T06:23:06;9.05;;;2.97;;
42294;SDS011;27947;47.556;18.718;2023-11-21T06:25:32;7.90;;;2.78;;
42294;SDS011;27947;47.556;18.718;2023-11-21T06:28:01;9.20;;;3.20;;
42294;SDS011;27947;47.556;18.718;2023-11-21T06:30:26;9.55;;;3.20;;
42294;SDS011;27947;47.556;18.718;2023-11-21T06:32:52;7.75;;;3.08;;
42294;SDS011;27947;47.556;18.718;2023-11-21T06:35:18;7.18;;;2.35;;
42294;SDS011;27947;47.556;18.718;2023-11-21T06:37:43;8.20;;;3.10;;
42294;SDS011;27947;47.556;18.718;2023-11-21T06:40:12;5.15;;;2.42;;
42294;SDS011;27947;47.556;18.718;2023-11-21T06:42:40;6.50;;;3.17;;
42294;SDS011;27947;47.556;18.718;2023-11-21T06:45:06;8.95;;;2.75;;
42294;SDS011;27947;47.556;18.718;2023-11-21T06:47:32;5.70;;;2.40;;
42294;SDS011;27947;47.556;18.718;2023-11-21T06:49:59;6.00;;;2.40;;
42294;SDS011;27947;47.556;18.718;2023-11-21T06:52:25;7.20;;;2.78;;
42294;SDS011;27947;47.556;18.718;2023-11-21T06:54:50;8.45;;;2.75;;
42294;SDS011;27947;47.556;18.718;2023-11-21T06:57:16;6.32;;;2.50;;
42294;SDS011;27947;47.556;18.718;2023-11-21T06:59:41;5.65;;;2.40;;
42294;SDS011;27947;47.556;18.718;2023-11-21T07:02:07;6.97;;;2.83;;
42294;SDS011;27947;47.556;18.718;2023-11-21T07:04:32;4.72;;;2.42;;
42294;SDS011;27947;47.556;18.718;2023-11-21T07:06:58;7.57;;;2.30;;
42294;SDS011;27947;47.556;18.718;2023-11-21T07:09:23;7.97;;;2.65;;
42294;SDS011;27947;47.556;18.718;2023-11-21T07:11:49;9.85;;;2.90;;
42294;SDS011;27947;47.556;18.718;2023-11-21T07:14:15;8.18;;;3.42;;
42294;SDS011;27947;47.556;18.718;2023-11-21T07:16:40;14.50;;;7.18;;
42294;SDS011;27947;47.556;18.718;2023-11-21T07:19:06;18.15;;;8.00;;
42294;SDS011;27947;47.556;18.718;2023-11-21T07:21:31;19.58;;;8.50;;
42294;SDS011;27947;47.556;18.718;2023-11-21T07:23:57;21.42;;;9.07;;
42294;SDS011;27947;47.556;18.718;2023-11-21T07:26:23;20.45;;;9.35;;
42294;SDS011;27947;47.556;18.718;2023-11-21T07:28:48;28.02;;;9.40;;
42294;SDS011;27947;47.556;18.718;2023-11-21T07:31:13;22.10;;;8.93;;
42294;SDS011;27947;47.556;18.718;2023-11-21T07:33:39;18.17;;;9.07;;
42294;SDS011;27947;47.556;18.718;2023-11-21T07:36:04;30.77;;;12.23;;
42294;SDS011;27947;47.556;18.718;2023-11-21T07:38:29;32.50;;;14.30;;
42294;SDS011;27947;47.556;18.718;2023-11-21T07:40:55;24.80;;;13.38;;
42294;SDS011;27947;47.556;18.718;2023-11-21T07:43:20;24.55;;;13.38;;
42294;SDS011;27947;47.556;18.718;2023-11-21T07:45:45;28.17;;;13.82;;
42294;SDS011;27947;47.556;18.718;2023-11-21T07:48:11;25.25;;;11.35;;
42294;SDS011;27947;47.556;18.718;2023-11-21T07:50:36;22.75;;;10.55;;
42294;SDS011;27947;47.556;18.718;2023-11-21T07:53:01;21.58;;;10.55;;
42294;SDS011;27947;47.556;18.718;2023-11-21T07:55:30;20.73;;;10.02;;
42294;SDS011;27947;47.556;18.718;2023-11-21T07:57:57;21.00;;;10.77;;
42294;SDS011;27947;47.556;18.718;2023-11-21T08:00:22;20.77;;;11.27;;
42294;SDS011;27947;47.556;18.718;2023-11-21T08:02:49;22.08;;;11.45;;
42294;SDS011;27947;47.556;18.718;2023-11-21T08:05:14;28.67;;;13.48;;
42294;SDS011;27947;47.556;18.718;2023-11-21T08:07:40;21.23;;;10.75;;
42294;SDS011;27947;47.556;18.718;2023-11-21T08:10:06;20.73;;;10.07;;
42294;SDS011;27947;47.556;18.718;2023-11-21T08:12:32;22.02;;;11.05;;
42294;SDS011;27947;47.556;18.718;2023-11-21T08:14:57;15.73;;;7.70;;
42294;SDS011;27947;47.556;18.718;2023-11-21T08:17:22;11.98;;;6.35;;
42294;SDS011;27947;47.556;18.718;2023-11-21T08:19:48;13.60;;;6.35;;
42294;SDS011;27947;47.556;18.718;2023-11-21T08:22:17;13.05;;;6.93;;
42294;SDS011;27947;47.556;18.718;2023-11-21T08:24:43;12.27;;;6.55;;
42294;SDS011;27947;47.556;18.718;2023-11-21T08:27:08;11.63;;;6.40;;
42294;SDS011;27947;47.556;18.718;2023-11-21T08:29:34;16.40;;;8.07;;
42294;SDS011;27947;47.556;18.718;2023-11-21T08:32:01;21.73;;;9.43;;
42294;SDS011;27947;47.556;18.718;2023-11-21T08:34:27;19.65;;;9.30;;
42294;SDS011;27947;47.556;18.718;2023-11-21T08:36:53;21.30;;;10.07;;
42294;SDS011;27947;47.556;18.718;2023-11-21T08:39:18;30.00;;;12.05;;
42294;SDS011;27947;47.556;18.718;2023-11-21T08:41:44;28.98;;;11.88;;
42294;SDS011;27947;47.556;18.718;2023-11-21T08:44:09;30.35;;;13.23;;
42294;SDS011;27947;47.556;18.718;2023-11-21T08:46:36;27.33;;;12.15;;
42294;SDS011;27947;47.556;18.718;2023-11-21T08:49:01;31.20;;;12.27;;
42294;SDS011;27947;47.556;18.718;2023-11-21T08:51:27;33.30;;;13.40;;
42294;SDS011;27947;47.556;18.718;2023-11-21T08:53:52;33.03;;;13.30;;
42294;SDS011;27947;47.556;18.718;2023-11-21T08:56:18;25.73;;;11.35;;
42294;SDS011;27947;47.556;18.718;2023-11-21T08:58:45;20.98;;;10.30;;
42294;SDS011;27947;47.556;18.718;2023-11-21T09:01:12;20.88;;;9.50;;
42294;SDS011;27947;47.556;18.718;2023-11-21T09:03:37;17.35;;;8.90;;
42294;SDS011;27947;47.556;18.718;2023-11-21T09:06:02;16.33;;;8.35;;
42294;SDS011;27947;47.556;18.718;2023-11-21T09:08:28;17.77;;;7.97;;
42294;SDS011;27947;47.556;18.718;2023-11-21T09:10:54;15.52;;;7.80;;
42294;SDS011;27947;47.556;18.718;2023-11-21T09:13:19;20.00;;;10.00;;
42294;SDS011;27947;47.556;18.718;2023-11-21T09:15:45;28.00;;;12.68;;
42294;SDS011;27947;47.556;18.718;2023-11-21T09:18:14;22.83;;;12.15;;
42294;SDS011;27947;47.556;18.718;2023-11-21T09:20:40;23.67;;;12.00;;
42294;SDS011;27947;47.556;18.718;2023-11-21T09:23:05;26.58;;;11.52;;
42294;SDS011;27947;47.556;18.718;2023-11-21T09:25:32;23.20;;;11.55;;
42294;SDS011;27947;47.556;18.718;2023-11-21T09:27:57;16.15;;;9.50;;
42294;SDS011;27947;47.556;18.718;2023-11-21T09:30:23;14.95;;;9.20;;
42294;SDS011;27947;47.556;18.718;2023-11-21T09:32:50;17.98;;;9.70;;
42294;SDS011;27947;47.556;18.718;2023-11-21T09:35:15;17.45;;;9.18;;
42294;SDS011;27947;47.556;18.718;2023-11-21T09:37:45;20.85;;;10.38;;
42294;SDS011;27947;47.556;18.718;2023-11-21T09:40:11;18.67;;;10.77;;
42294;SDS011;27947;47.556;18.718;2023-11-21T09:42:39;23.33;;;11.80;;
42294;SDS011;27947;47.556;18.718;2023-11-21T09:45:17;29.60;;;16.98;;
42294;SDS011;27947;47.556;18.718;2023-11-21T09:47:45;34.45;;;18.38;;
42294;SDS011;27947;47.556;18.718;2023-11-21T09:50:11;28.42;;;15.82;;
42294;SDS011;27947;47.556;18.718;2023-11-21T09:53:03;31.35;;;17.02;;
42294;SDS011;27947;47.556;18.718;2023-11-21T09:55:30;35.17;;;16.27;;
42294;SDS011;27947;47.556;18.718;2023-11-21T09:58:00;35.28;;;16.10;;
42294;SDS011;27947;47.556;18.718;2023-11-21T10:00:27;25.75;;;13.38;;
42294;SDS011;27947;47.556;18.718;2023-11-21T10:02:54;23.77;;;12.43;;
42294;SDS011;27947;47.556;18.718;2023-11-21T10:05:21;27.77;;;14.00;;
42294;SDS011;27947;47.556;18.718;2023-11-21T10:07:48;29.02;;;13.63;;
42294;SDS011;27947;47.556;18.718;2023-11-21T10:10:14;23.77;;;10.57;;
42294;SDS011;27947;47.556;18.718;2023-11-21T10:12:41;20.35;;;9.65;;
42294;SDS011;27947;47.556;18.718;2023-11-21T10:15:07;22.45;;;9.65;;
42294;SDS011;27947;47.556;18.718;2023-11-21T10:17:33;24.75;;;10.50;;
42294;SDS011;27947;47.556;18.718;2023-11-21T10:20:04;17.70;;;9.80;;
42294;SDS011;27947;47.556;18.718;2023-11-21T10:22:37;20.48;;;10.82;;
42294;SDS011;27947;47.556;18.718;2023-11-21T10:25:03;24.23;;;10.82;;
42294;SDS011;27947;47.556;18.718;2023-11-21T10:27:28;24.27;;;11.15;;
42294;SDS011;27947;47.556;18.718;2023-11-21T10:29:53;21.10;;;10.15;;
42294;SDS011;27947;47.556;18.718;2023-11-21T10:32:19;22.92;;;11.63;;
42294;SDS011;27947;47.556;18.718;2023-11-21T10:34:55;25.02;;;10.68;;
42294;SDS011;27947;47.556;18.718;2023-11-21T10:37:20;21.90;;;10.85;;
42294;SDS011;27947;47.556;18.718;2023-11-21T10:39:45;21.05;;;10.27;;
42294;SDS011;27947;47.556;18.718;2023-11-21T10:42:11;21.27;;;10.63;;
42294;SDS011;27947;47.556;18.718;2023-11-21T10:44:36;17.17;;;8.55;;
42294;SDS011;27947;47.556;18.718;2023-11-21T10:47:02;17.10;;;9.65;;
42294;SDS011;27947;47.556;18.718;2023-11-21T10:49:28;21.60;;;10.88;;
42294;SDS011;27947;47.556;18.718;2023-11-21T10:51:54;24.70;;;11.13;;
42294;SDS011;27947;47.556;18.718;2023-11-21T10:54:19;26.70;;;12.38;;
42294;SDS011;27947;47.556;18.718;2023-11-21T10:56:46;26.92;;;13.45;;
42294;SDS011;27947;47.556;18.718;2023-11-21T10:59:12;28.05;;;14.38;;
42294;SDS011;27947;47.556;18.718;2023-11-21T11:01:41;30.98;;;15.00;;
42294;SDS011;27947;47.556;18.718;2023-11-21T11:04:08;23.00;;;10.60;;
42294;SDS011;27947;47.556;18.718;2023-11-21T11:06:40;16.55;;;7.32;;
42294;SDS011;27947;47.556;18.718;2023-11-21T11:09:05;13.05;;;6.85;;
42294;SDS011;27947;47.556;18.718;2023-11-21T11:11:33;13.27;;;6.00;;
42294;SDS011;27947;47.556;18.718;2023-11-21T11:13:59;11.65;;;6.55;;
42294;SDS011;27947;47.556;18.718;2023-11-21T11:16:25;13.98;;;6.20;;
42294;SDS011;27947;47.556;18.718;2023-11-21T11:18:51;11.75;;;6.50;;
42294;SDS011;27947;47.556;18.718;2023-11-21T11:24:29;12.73;;;5.78;;
42294;SDS011;27947;47.556;18.718;2023-11-21T11:26:39;11.68;;;6.53;;
42294;SDS011;27947;47.556;18.718;2023-11-21T11:29:18;13.32;;;6.40;;
42294;SDS011;27947;47.556;18.718;2023-11-21T11:31:49;16.02;;;6.20;;
42294;SDS011;27947;47.556;18.718;2023-11-21T11:34:26;15.27;;;6.38;;
42294;SDS011;27947;47.556;18.718;2023-11-21T11:36:57;12.98;;;6.75;;
42294;SDS011;27947;47.556;18.718;2023-11-21T11:39:40;11.80;;;6.78;;
42294;SDS011;27947;47.556;18.718;2023-11-21T11:42:13;14.80;;;6.60;;
42294;SDS011;27947;47.556;18.718;2023-11-21T11:47:15;11.50;;;6.03;;
42294;SDS011;27947;47.556;18.718;2023-11-21T11:50:00;10.63;;;6.05;;
42294;SDS011;27947;47.556;18.718;2023-11-21T11:52:39;11.60;;;7.03;;
42294;SDS011;27947;47.556;18.718;2023-11-21T11:55:11;13.48;;;7.50;;
42294;SDS011;27947;47.556;18.718;2023-11-21T11:57:38;15.68;;;7.93;;
42294;SDS011;27947;47.556;18.718;2023-11-21T12:02:41;18.20;;;8.25;;
42294;SDS011;27947;47.556;18.718;2023-11-21T12:05:14;14.25;;;8.07;;
42294;SDS011;27947;47.556;18.718;2023-11-21T12:07:50;15.80;;;8.15;;
42294;SDS011;27947;47.556;18.718;2023-11-21T12:10:18;13.52;;;7.93;;
42294;SDS011;27947;47.556;18.718;2023-11-21T12:12:48;14.55;;;7.93;;
42294;SDS011;27947;47.556;18.718;2023-11-21T12:15:14;11.68;;;6.80;;
42294;SDS011;27947;47.556;18.718;2023-11-21T12:17:40;19.30;;;8.30;;
42294;SDS011;27947;47.556;18.718;2023-11-21T12:20:07;20.40;;;8.40;;
42294;SDS011;27947;47.556;18.718;2023-11-21T12:22:43;17.77;;;8.32;;
42294;SDS011;27947;47.556;18.718;2023-11-21T12:25:08;15.43;;;8.15;;
42294;SDS011;27947;47.556;18.718;2023-11-21T12:27:33;20.27;;;10.32;;
42294;SDS011;27947;47.556;18.718;2023-11-21T12:29:59;28.50;;;13.90;;
42294;SDS011;27947;47.556;18.718;2023-11-21T12:32:24;41.17;;;18.02;;
42294;SDS011;27947;47.556;18.718;2023-11-21T12:34:50;36.15;;;16.52;;
42294;SDS011;27947;47.556;18.718;2023-11-21T12:37:16;29.65;;;15.82;;
42294;SDS011;27947;47.556;18.718;2023-11-21T12:39:42;28.42;;;15.25;;
42294;SDS011;27947;47.556;18.718;2023-11-21T12:42:07;25.63;;;11.95;;
42294;SDS011;27947;47.556;18.718;2023-11-21T12:44:33;21.75;;;11.05;;
42294;SDS011;27947;47.556;18.718;2023-11-21T12:46:59;24.73;;;13.20;;
42294;SDS011;27947;47.556;18.718;2023-11-21T12:49:24;22.65;;;11.55;;
42294;SDS011;27947;47.556;18.718;2023-11-21T12:51:49;17.80;;;9.93;;
42294;SDS011;27947;47.556;18.718;2023-11-21T12:54:15;21.85;;;10.23;;
42294;SDS011;27947;47.556;18.718;2023-11-21T12:56:41;22.48;;;9.77;;
42294;SDS011;27947;47.556;18.718;2023-11-21T12:59:06;20.25;;;8.65;;
42294;SDS011;27947;47.556;18.718;2023-11-21T13:01:31;13.15;;;6.32;;
42294;SDS011;27947;47.556;18.718;2023-11-21T13:03:57;13.00;;;5.88;;
42294;SDS011;27947;47.556;18.718;2023-11-21T13:06:27;6.75;;;3.70;;
42294;SDS011;27947;47.556;18.718;2023-11-21T13:08:53;10.10;;;3.63;;
42294;SDS011;27947;47.556;18.718;2023-11-21T13:11:19;9.70;;;2.97;;
42294;SDS011;27947;47.556;18.718;2023-11-21T13:13:44;6.60;;;2.90;;
42294;SDS011;27947;47.556;18.718;2023-11-21T13:16:10;7.88;;;3.15;;
42294;SDS011;27947;47.556;18.718;2023-11-21T13:18:35;7.88;;;2.97;;
42294;SDS011;27947;47.556;18.718;2023-11-21T13:21:02;8.85;;;3.20;;
42294;SDS011;27947;47.556;18.718;2023-11-21T13:23:34;8.65;;;3.58;;
42294;SDS011;27947;47.556;18.718;2023-11-21T13:26:01;7.20;;;4.05;;
42294;SDS011;27947;47.556;18.718;2023-11-21T13:28:29;12.10;;;4.90;;
42294;SDS011;27947;47.556;18.718;2023-11-21T13:30:58;11.00;;;4.93;;
42294;SDS011;27947;47.556;18.718;2023-11-21T13:33:28;11.63;;;5.63;;
42294;SDS011;27947;47.556;18.718;2023-11-21T13:35:53;12.38;;;6.00;;
42294;SDS011;27947;47.556;18.718;2023-11-21T13:38:21;13.02;;;6.07;;
42294;SDS011;27947;47.556;18.718;2023-11-21T13:40:50;10.20;;;5.18;;
42294;SDS011;27947;47.556;18.718;2023-11-21T13:43:18;16.95;;;6.47;;
42294;SDS011;27947;47.556;18.718;2023-11-21T13:45:46;12.30;;;5.15;;
42294;SDS011;27947;47.556;18.718;2023-11-21T13:48:12;10.00;;;4.53;;
42294;SDS011;27947;47.556;18.718;2023-11-21T13:50:44;9.05;;;4.43;;
42294;SDS011;27947;47.556;18.718;2023-11-21T13:53:20;9.45;;;4.28;;
42294;SDS011;27947;47.556;18.718;2023-11-21T13:55:49;10.30;;;4.50;;
42294;SDS011;27947;47.556;18.718;2023-11-21T13:58:16;6.63;;;3.97;;
42294;SDS011;27947;47.556;18.718;2023-11-21T14:00:48;8.13;;;4.30;;
42294;SDS011;27947;47.556;18.718;2023-11-21T14:03:17;9.38;;;4.05;;
42294;SDS011;27947;47.556;18.718;2023-11-21T14:05:45;9.70;;;3.63;;
42294;SDS011;27947;47.556;18.718;2023-11-21T14:08:20;6.70;;;3.45;;
42294;SDS011;27947;47.556;18.718;2023-11-21T14:10:47;8.40;;;3.58;;
42294;SDS011;27947;47.556;18.718;2023-11-21T14:13:17;8.75;;;3.70;;
42294;SDS011;27947;47.556;18.718;2023-11-21T14:15:42;6.70;;;3.65;;
42294;SDS011;27947;47.556;18.718;2023-11-21T14:18:11;6.30;;;3.03;;
42294;SDS011;27947;47.556;18.718;2023-11-21T14:20:37;4.95;;;2.85;;
42294;SDS011;27947;47.556;18.718;2023-11-21T14:23:07;8.20;;;3.20;;
42294;SDS011;27947;47.556;18.718;2023-11-21T14:25:33;7.15;;;3.20;;
42294;SDS011;27947;47.556;18.718;2023-11-21T14:27:59;8.70;;;3.58;;
42294;SDS011;27947;47.556;18.718;2023-11-21T14:30:24;5.55;;;2.80;;